Time;durP1;ratioP1;P1;durP2;ratioP2;P2;SDS_P1;SDS_P2;PMS_P1;PMS_P2;Temp;Humidity;BMP_temperature;BMP_pressure;BME280_temperature;BME280_humidity;BME280_pressure;Samples;Min_cycle;Max_cycle;Signal;HPM_P1;HPM_P2
2021/05/20 00:00:25;;;;;;;245.63;233.53;;;8.00;99.90;;;;;;5053461;28;20459;-83
2021/05/20 00:02:52;;;;;;;244.13;232.53;;;8.30;99.90;;;;;;5053470;28;20518;-83
2021/05/20 00:05:19;;;;;;;256.70;243.93;;;8.50;99.90;;;;;;5051902;28;20542;-82
2021/05/20 00:07:46;;;;;;;252.70;240.20;;;8.80;99.90;;;;;;5053225;28;20479;-82
2021/05/20 00:10:14;;;;;;;272.37;258.37;;;8.90;99.90;;;;;;5053579;28;20451;-82
2021/05/20 00:12:40;;;;;;;283.53;269.67;;;9.00;99.90;;;;;;5053036;28;20525;-82
2021/05/20 00:15:14;;;;;;;304.20;288.17;;;9.10;99.90;;;;;;5053458;28;20444;-82
2021/05/20 00:17:41;;;;;;;298.00;283.47;;;9.20;99.90;;;;;;5053211;28;20472;-82
2021/05/20 00:20:11;;;;;;;296.70;282.23;;;9.20;99.90;;;;;;5051801;28;20447;-82
2021/05/20 00:22:39;;;;;;;316.67;301.77;;;9.40;99.90;;;;;;5053077;28;20580;-82
2021/05/20 00:25:07;;;;;;;305.97;291.23;;;9.30;99.90;;;;;;5053293;28;20452;-82
2021/05/20 00:27:34;;;;;;;316.20;301.83;;;9.40;99.90;;;;;;5053100;28;21015;-82
2021/05/20 00:30:00;;;;;;;311.07;296.67;;;9.30;99.90;;;;;;5059028;28;20497;-82
2021/05/20 00:32:29;;;;;;;317.40;302.30;;;9.40;99.90;;;;;;5058714;28;20460;-82
2021/05/20 00:34:56;;;;;;;304.87;290.27;;;9.40;99.90;;;;;;5051614;28;20782;-82
2021/05/20 00:37:23;;;;;;;296.50;282.73;;;9.30;99.90;;;;;;5052982;28;20953;-82
2021/05/20 00:39:49;;;;;;;290.40;276.77;;;9.40;99.90;;;;;;5052717;28;20443;-82
2021/05/20 00:42:15;;;;;;;294.70;279.70;;;9.40;99.90;;;;;;5052772;28;20451;-82
2021/05/20 00:44:53;;;;;;;299.33;285.07;;;9.50;99.90;;;;;;5052523;28;20501;-82
2021/05/20 00:47:20;;;;;;;282.53;269.07;;;9.50;99.90;;;;;;5052624;28;20478;-82
2021/05/20 00:49:46;;;;;;;278.60;265.63;;;9.50;99.90;;;;;;5051411;28;20851;-82
2021/05/20 00:52:14;;;;;;;273.20;260.00;;;9.60;99.90;;;;;;5052758;28;20535;-82
2021/05/20 00:54:40;;;;;;;279.17;265.23;;;9.50;99.90;;;;;;5052774;28;20851;-82
2021/05/20 00:57:11;;;;;;;267.93;255.23;;;9.50;99.90;;;;;;5052728;28;20946;-82
2021/05/20 00:59:37;;;;;;;259.50;246.77;;;9.50;99.90;;;;;;5052429;28;20454;-82
2021/05/20 01:02:05;;;;;;;261.77;249.37;;;9.40;99.90;;;;;;5052649;28;20505;-82
2021/05/20 01:04:31;;;;;;;229.20;218.03;;;9.30;99.90;;;;;;5051529;28;20455;-82
2021/05/20 01:06:57;;;;;;;231.73;219.93;;;9.40;99.90;;;;;;5052081;28;20487;-82
2021/05/20 01:09:26;;;;;;;215.90;205.00;;;9.50;99.90;;;;;;5052118;28;20455;-82
2021/05/20 01:11:54;;;;;;;217.00;206.50;;;9.40;99.90;;;;;;5052373;28;20541;-82
2021/05/20 01:14:22;;;;;;;215.97;204.70;;;9.20;99.90;;;;;;5052026;28;20462;-82
2021/05/20 01:16:48;;;;;;;204.40;193.40;;;9.40;99.90;;;;;;5052857;28;20538;-82
2021/05/20 01:19:15;;;;;;;209.53;198.83;;;9.30;99.90;;;;;;5051046;28;20455;-82
2021/05/20 01:21:44;;;;;;;205.17;193.87;;;9.20;99.90;;;;;;5052075;28;20447;-82
2021/05/20 01:24:11;;;;;;;191.10;181.40;;;9.20;99.90;;;;;;5048516;28;20473;-82
2021/05/20 01:26:38;;;;;;;188.20;178.10;;;9.10;99.90;;;;;;5052189;28;21123;-81
2021/05/20 01:29:05;;;;;;;179.13;169.70;;;9.00;99.90;;;;;;5052157;28;20478;-82
2021/05/20 01:31:31;;;;;;;166.17;156.67;;;8.90;99.90;;;;;;5052569;28;20466;-82
2021/05/20 01:33:57;;;;;;;165.93;156.47;;;8.80;99.90;;;;;;5051806;28;20538;-82
2021/05/20 01:36:25;;;;;;;166.10;156.60;;;8.80;99.90;;;;;;5050975;28;20486;-82
2021/05/20 01:38:53;;;;;;;169.57;160.07;;;8.80;99.90;;;;;;5051907;28;20942;-82
2021/05/20 01:41:20;;;;;;;166.33;156.73;;;8.70;99.90;;;;;;5052483;28;20486;-82
2021/05/20 01:43:46;;;;;;;163.93;154.97;;;8.70;99.90;;;;;;5052497;28;20482;-82
2021/05/20 01:46:13;;;;;;;160.77;151.67;;;8.70;99.90;;;;;;5052096;28;20500;-82
2021/05/20 01:48:41;;;;;;;166.40;157.17;;;8.70;99.90;;;;;;5051944;28;20485;-81
2021/05/20 01:51:09;;;;;;;172.13;163.03;;;8.70;99.90;;;;;;5050748;28;21064;-82
2021/05/20 01:53:37;;;;;;;177.10;167.43;;;8.70;99.90;;;;;;5051897;28;20451;-82
2021/05/20 01:56:06;;;;;;;179.53;168.87;;;8.60;99.90;;;;;;5052099;28;20459;-82
2021/05/20 01:58:33;;;;;;;188.83;178.63;;;8.70;99.90;;;;;;5051982;28;20459;-82
2021/05/20 02:00:59;;;;;;;181.10;170.90;;;8.60;99.90;;;;;;5052330;28;20459;-82
2021/05/20 02:03:26;;;;;;;185.37;175.03;;;8.50;99.90;;;;;;5051840;28;20451;-82
2021/05/20 02:05:53;;;;;;;182.97;172.57;;;8.60;99.90;;;;;;5050690;28;20448;-82
2021/05/20 02:08:19;;;;;;;183.50;173.57;;;8.60;99.90;;;;;;5051831;28;20479;-82
2021/05/20 02:10:46;;;;;;;192.63;182.23;;;8.60;99.90;;;;;;5051807;28;20817;-82
2021/05/20 02:13:14;;;;;;;196.33;184.73;;;8.60;99.90;;;;;;5051883;28;21048;-82
2021/05/20 02:15:41;;;;;;;189.83;179.87;;;8.60;99.90;;;;;;5055063;28;20534;-82
2021/05/20 02:18:09;;;;;;;208.67;195.97;;;8.60;99.90;;;;;;5055755;28;20513;-82
2021/05/20 02:20:37;;;;;;;207.03;195.13;;;8.90;99.90;;;;;;5054225;28;20455;-82
2021/05/20 02:23:04;;;;;;;220.67;208.17;;;8.70;99.90;;;;;;5055189;28;20884;-82
2021/05/20 02:25:31;;;;;;;225.47;212.00;;;8.90;99.90;;;;;;5055293;28;20486;-82
2021/05/20 02:27:57;;;;;;;226.70;212.83;;;8.90;99.90;;;;;;5055373;28;20486;-82
2021/05/20 02:30:25;;;;;;;228.97;216.47;;;8.90;99.90;;;;;;5054839;28;20534;-82
2021/05/20 02:32:51;;;;;;;248.00;233.33;;;8.90;99.90;;;;;;5055387;28;20527;-82
2021/05/20 02:35:19;;;;;;;256.63;241.97;;;8.90;99.90;;;;;;5053946;28;20447;-82
2021/05/20 02:37:46;;;;;;;262.87;248.30;;;8.80;99.90;;;;;;5055451;28;20466;-82
2021/05/20 02:40:18;;;;;;;264.47;249.73;;;8.80;99.90;;;;;;5054695;28;20993;-82
2021/05/20 02:42:46;;;;;;;261.73;247.27;;;8.70;99.90;;;;;;5054996;28;20961;-82
2021/05/20 02:45:18;;;;;;;269.90;255.20;;;8.80;99.90;;;;;;5054897;28;20451;-82
2021/05/20 02:47:46;;;;;;;254.13;239.57;;;8.60;99.90;;;;;;5055080;28;21047;-82
2021/05/20 02:50:14;;;;;;;247.23;232.17;;;8.70;99.90;;;;;;5053590;28;20479;-82
2021/05/20 02:52:43;;;;;;;232.40;218.83;;;8.60;99.90;;;;;;5054942;28;20457;-82
2021/05/20 02:55:11;;;;;;;237.60;223.97;;;8.70;99.90;;;;;;5054602;28;20505;-83
2021/05/20 02:57:40;;;;;;;238.60;224.57;;;8.70;99.90;;;;;;5054614;28;20898;-82
2021/05/20 03:00:09;;;;;;;240.00;225.73;;;8.90;99.90;;;;;;5054510;28;20467;-83
2021/05/20 03:02:35;;;;;;;233.63;218.83;;;8.90;99.90;;;;;;5054939;28;20901;-82
2021/05/20 03:05:04;;;;;;;240.50;226.40;;;9.00;99.90;;;;;;5053311;28;20538;-82
2021/05/20 03:07:30;;;;;;;259.93;242.23;;;9.10;99.90;;;;;;5054563;28;20478;-82
2021/05/20 03:09:56;;;;;;;298.43;276.07;;;9.10;99.90;;;;;;5054708;28;20475;-79
2021/05/20 03:12:26;;;;;;;322.53;295.80;;;9.30;99.90;;;;;;5054485;28;20539;-81
2021/05/20 03:14:52;;;;;;;328.43;300.73;;;9.30;99.90;;;;;;5053224;28;20527;-83
2021/05/20 03:17:21;;;;;;;311.57;284.07;;;9.10;99.90;;;;;;5054744;28;20479;-82
2021/05/20 03:19:50;;;;;;;265.23;246.70;;;9.10;99.90;;;;;;5057351;28;20482;-80
2021/05/20 03:22:18;;;;;;;223.53;209.97;;;9.00;99.90;;;;;;5054912;28;20546;-81
2021/05/20 03:24:44;;;;;;;228.23;214.93;;;9.10;99.90;;;;;;5054344;28;20498;-79
2021/05/20 03:27:11;;;;;;;221.77;208.30;;;9.20;99.90;;;;;;5053045;28;20985;-83
2021/05/20 03:29:39;;;;;;;211.50;197.33;;;9.00;99.90;;;;;;5053873;28;20885;-82
2021/05/20 03:32:06;;;;;;;215.93;202.33;;;9.00;99.90;;;;;;5054145;28;20459;-84
2021/05/20 03:34:33;;;;;;;213.10;199.93;;;8.90;99.90;;;;;;5052289;28;20463;-78
2021/05/20 03:36:59;;;;;;;220.13;205.80;;;8.90;99.90;;;;;;5054293;28;20447;-79
2021/05/20 03:39:26;;;;;;;228.60;213.80;;;8.90;99.90;;;;;;5053680;28;21120;-77
2021/05/20 03:41:52;;;;;;;236.20;220.73;;;8.80;99.90;;;;;;5054186;28;20465;-78
2021/05/20 03:44:19;;;;;;;224.63;211.30;;;8.90;99.90;;;;;;5053763;28;20464;-80
2021/05/20 03:46:45;;;;;;;223.13;208.00;;;8.80;99.90;;;;;;5058186;28;20477;-79
2021/05/20 03:49:12;;;;;;;210.33;196.70;;;8.70;99.90;;;;;;5066041;28;20616;-81
2021/05/20 03:51:40;;;;;;;206.27;191.87;;;8.70;99.90;;;;;;5060088;28;20459;-81
2021/05/20 03:54:07;;;;;;;207.33;193.47;;;8.80;99.90;;;;;;5055013;28;20512;-83
2021/05/20 03:56:34;;;;;;;204.83;191.40;;;8.80;99.90;;;;;;5055916;28;20455;-84
2021/05/20 03:59:00;;;;;;;195.83;183.03;;;8.60;99.90;;;;;;5053812;28;20950;-82
2021/05/20 04:01:27;;;;;;;206.90;192.90;;;8.60;99.90;;;;;;5054741;28;20455;-83
2021/05/20 04:03:53;;;;;;;200.40;186.80;;;8.50;99.90;;;;;;5054732;28;20962;-78
2021/05/20 04:06:27;;;;;;;189.67;176.57;;;8.50;99.90;;;;;;5051707;28;21021;-83
2021/05/20 04:08:54;;;;;;;198.63;184.73;;;8.60;99.90;;;;;;5054567;28;20990;-83
2021/05/20 04:11:22;;;;;;;194.67;179.60;;;8.50;99.90;;;;;;5056668;28;20542;-82
2021/05/20 04:13:56;;;;;;;202.77;188.47;;;8.50;99.90;;;;;;5053334;28;20451;-82
2021/05/20 04:16:25;;;;;;;200.87;186.27;;;8.50;99.90;;;;;;5053487;28;20447;-82
2021/05/20 04:18:51;;;;;;;216.57;198.70;;;8.60;99.90;;;;;;5053045;28;20534;-82
2021/05/20 04:21:18;;;;;;;216.97;201.20;;;8.70;99.90;;;;;;5051102;28;20448;-82
2021/05/20 04:23:45;;;;;;;227.37;209.87;;;8.70;99.90;;;;;;5052546;28;20887;-82
2021/05/20 04:26:12;;;;;;;233.37;216.63;;;8.80;99.90;;;;;;5053178;28;20471;-82
2021/05/20 04:28:38;;;;;;;228.67;211.27;;;8.70;99.90;;;;;;5052046;28;20510;-82
2021/05/20 04:31:07;;;;;;;242.67;224.93;;;8.90;99.90;;;;;;5052231;28;20951;-82
2021/05/20 04:33:34;;;;;;;230.40;214.00;;;9.00;99.90;;;;;;5052476;28;20547;-82
2021/05/20 04:36:02;;;;;;;224.33;208.03;;;9.10;99.90;;;;;;5051360;28;20443;-83
2021/05/20 04:38:28;;;;;;;242.87;224.83;;;9.10;99.90;;;;;;5052299;28;20513;-82
2021/05/20 04:40:55;;;;;;;254.37;235.30;;;9.10;99.90;;;;;;5052609;28;20478;-82
2021/05/20 04:43:22;;;;;;;248.37;230.00;;;9.10;99.90;;;;;;5052992;28;20513;-83
2021/05/20 04:45:49;;;;;;;243.43;225.17;;;9.30;99.90;;;;;;5052700;28;20454;-82
2021/05/20 04:48:17;;;;;;;237.57;221.20;;;9.20;99.90;;;;;;5052536;28;20487;-82
2021/05/20 04:50:44;;;;;;;230.60;213.93;;;9.20;99.90;;;;;;5051707;28;20447;-82
2021/05/20 04:53:26;;;;;;;231.57;214.57;;;9.20;99.90;;;;;;5052816;28;20448;-83
2021/05/20 04:55:53;;;;;;;223.67;208.07;;;9.20;99.90;;;;;;5052662;28;20462;-83
2021/05/20 04:58:22;;;;;;;207.30;192.70;;;9.20;99.90;;;;;;5051723;28;20550;-82
2021/05/20 05:00:56;;;;;;;224.27;207.67;;;9.40;99.90;;;;;;5052447;28;20455;-83
2021/05/20 05:03:27;;;;;;;219.67;202.33;;;9.40;99.90;;;;;;5051936;28;20453;-84
2021/05/20 05:05:53;;;;;;;210.57;195.73;;;9.50;99.90;;;;;;5050016;28;20454;-82
2021/05/20 05:08:29;;;;;;;217.07;201.47;;;9.60;99.90;;;;;;5051738;28;20581;-83
2021/05/20 05:10:57;;;;;;;203.07;188.03;;;9.60;99.90;;;;;;5051142;28;20462;-83
2021/05/20 05:13:47;;;;;;;208.20;193.20;;;9.60;99.90;;;;;;5051376;28;20454;-83
2021/05/20 05:26:27;;;;;;;;;;;;;;;;;;;;;
2021/05/20 05:29:14;;;;;;;187.37;173.00;;;9.80;99.90;;;;;;4953526;28;21066;-84
2021/05/20 05:38:19;;;;;;;162.80;150.90;;;10.30;99.90;;;;;;4819511;29;20452;-82
2021/05/20 05:41:31;;;;;;;156.93;145.90;;;10.40;99.90;;;;;;4972761;28;20447;-82
2021/05/20 05:44:15;;;;;;;132.30;122.30;;;10.50;99.90;;;;;;4900306;28;20459;-82
2021/05/20 05:53:36;;;;;;;124.80;114.80;;;10.50;99.90;;;;;;4902579;29;20457;-83
2021/05/20 05:56:25;;;;;;;114.00;104.97;;;10.70;99.90;;;;;;4973946;28;20823;-83
2021/05/20 05:58:53;;;;;;;108.37;98.80;;;10.50;99.90;;;;;;4995983;28;20875;-84
2021/05/20 06:08:38;;;;;;;85.43;77.30;;;10.90;99.90;;;;;;4929902;29;20232;-84
2021/05/20 06:11:39;;;;;;;80.20;71.10;;;11.00;99.90;;;;;;4936480;29;20460;-82
2021/05/20 06:14:53;;;;;;;;;;;;;;;;;;;;;
2021/05/20 06:17:47;;;;;;;;;;;;;;;;;;;;;
2021/05/20 06:20:38;;;;;;;72.97;53.70;;;11.50;99.90;;;;;;5034678;28;20456;-83
2021/05/20 06:23:26;;;;;;;65.67;43.50;;;11.30;99.90;;;;;;5035911;28;20456;-83
2021/05/20 06:26:03;;;;;;;54.70;34.93;;;11.50;99.90;;;;;;5035666;28;20451;-83
2021/05/20 06:28:36;;;;;;;63.90;39.87;;;11.50;99.90;;;;;;5035356;28;21013;-83
2021/05/20 06:34:51;;;;;;;54.00;29.83;;;11.90;99.90;;;;;;4822173;29;20458;-83
2021/05/20 06:45:27;;;;;;;48.20;22.53;;;12.40;99.90;;;;;;4842301;29;20513;-83
2021/05/20 13:23:47;;;;;;;37.10;2.67;;;20.20;1.00;;;;;;5951770;23;20461;-83
2021/05/20 13:26:34;;;;;;;;;;;;;;;;;;;;;
2021/05/20 13:29:09;;;;;;;37.50;2.60;;;20.70;1.00;;;;;;5948074;23;20500;-83
2021/05/20 13:31:38;;;;;;;37.83;2.80;;;21.10;1.00;;;;;;6017843;23;20418;-81
2021/05/20 13:34:05;;;;;;;37.50;2.70;;;21.40;1.00;;;;;;6008774;23;20406;-80
2021/05/20 13:36:33;;;;;;;39.10;2.47;;;21.60;1.00;;;;;;6102114;23;20443;-80
2021/05/20 13:38:59;;;;;;;40.40;2.90;;;21.30;1.00;;;;;;6121296;23;20403;-82
2021/05/20 13:41:25;;;;;;;41.80;3.10;;;21.00;1.00;;;;;;6121609;23;20438;-80
2021/05/20 13:43:53;;;;;;;43.60;2.83;;;20.50;1.00;;;;;;6219679;22;20441;-81
2021/05/20 13:46:21;;;;;;;40.07;2.80;;;20.10;1.00;;;;;;6286369;22;20418;-84
2021/05/20 13:49:20;;;;;;;;;;;;;;;;;;;;;
2021/05/20 13:52:17;;;;;;;;;;;;;;;;;;;;;
2021/05/20 13:55:14;;;;;;;36.50;2.90;;;19.10;1.00;;;;;;6210825;22;20421;-84
2021/05/20 13:57:56;;;;;;;;;;;;;;;;;;;;;
2021/05/20 14:01:04;;;;;;;35.10;2.60;;;18.30;1.00;;;;;;6207906;22;20452;-84
2021/05/20 14:03:49;;;;;;;;;;;;;;;;;;;;;
2021/05/20 14:10:04;;;;;;;39.33;4.43;;;18.00;1.00;;;;;;6036587;22;20416;-84
2021/05/20 14:13:25;;;;;;;;;;;;;;;;;;;;;
2021/05/20 14:42:03;;;;;;;;;;;;;;;;;;;;;
2021/05/20 14:44:43;;;;;;;35.47;3.23;;;18.80;1.00;;;;;;6196004;22;20410;-84
2021/05/20 14:50:45;;;;;;;35.90;2.97;;;18.80;1.00;;;;;;6131343;23;20993;-84
2021/05/20 14:53:19;;;;;;;34.80;2.97;;;18.70;1.00;;;;;;6260170;22;20406;-84
2021/05/20 14:55:59;;;;;;;36.07;3.03;;;18.50;1.00;;;;;;6276525;22;20452;-84
2021/05/20 16:16:19;;;;;;;;;;;;;;;;;;;;;
2021/05/20 16:36:20;;;;;;;29.13;2.67;;;17.10;4.10;;;;;;5935042;23;20428;-83
2021/05/20 16:59:00;;;;;;;;;;;;;;;;;;;;;
2021/05/20 17:16:35;;;;;;;25.77;1.90;;;16.00;2.40;;;;;;6101379;23;20194;-84
2021/05/20 17:26:30;;;;;;;;;;;;;;;;;;;;;
2021/05/20 18:15:23;;;;;;;;;;;;;;;;;;;;;
2021/05/20 18:18:48;;;;;;;;;;;;;;;;;;;;;
2021/05/20 18:34:43;;;;;;;25.80;3.20;;;15.30;10.60;;;;;;6121397;23;20464;-82
2021/05/20 18:44:40;;;;;;;;;;;;;;;;;;;;;
2021/05/20 18:54:02;;;;;;;24.30;2.77;;;14.80;14.50;;;;;;5926694;24;20481;-84
2021/05/20 18:56:44;;;;;;;22.23;2.53;;;14.70;14.00;;;;;;6120419;23;20421;-82
2021/05/20 19:02:53;;;;;;;;;;;;;;;;;;;;;
2021/05/20 19:19:22;;;;;;;21.67;2.20;;;14.70;8.50;;;;;;6081540;22;20473;-83
2021/05/20 19:21:50;;;;;;;20.80;1.60;;;14.70;8.40;;;;;;6231648;22;20411;-78
2021/05/20 19:28:00;;;;;;;20.60;1.50;;;14.70;6.90;;;;;;6180557;22;20496;-82
2021/05/20 19:31:30;;;;;;;;;;;;;;;;;;;;;
2021/05/20 19:44:13;;;;;;;20.17;1.30;;;14.40;3.50;;;;;;6219043;23;20429;-83
2021/05/20 20:10:16;;;;;;;;;;;;;;;;;;;;;
2021/05/20 22:06:00;;;;;;;16.23;1.50;;;12.80;23.50;;;;;;6108943;23;20836;-85
2021/05/20 23:47:11;;;;;;;;;;;;;;;;;;;;;
